createdAt,value
2023-04-06T00:00:33.934Z,2.10
2023-04-06T00:04:37.958Z,1.52
2023-04-06T00:08:40.789Z,2.70
2023-04-06T00:12:43.505Z,2.72
2023-04-06T00:16:46.272Z,2.05
2023-04-06T00:20:51.953Z,3.05
2023-04-06T00:24:54.602Z,1.80
2023-04-06T00:28:57.369Z,2.35
2023-04-06T00:33:00.116Z,2.10
2023-04-06T00:37:04.188Z,2.13
2023-04-06T00:41:06.907Z,2.95
2023-04-06T00:45:10.934Z,2.30
2023-04-06T00:49:13.653Z,2.28
2023-04-06T00:53:18.549Z,2.10
2023-04-06T00:57:21.286Z,1.70
2023-04-06T01:01:25.657Z,2.38
2023-04-06T01:05:28.522Z,2.63
2023-04-06T01:09:33.005Z,2.40
2023-04-06T01:13:35.690Z,2.45
2023-04-06T01:17:38.393Z,2.13
2023-04-06T01:21:42.526Z,2.38
2023-04-06T01:25:46.559Z,2.28
2023-04-06T01:29:49.230Z,2.85
2023-04-06T01:33:51.930Z,2.55
2023-04-06T01:37:54.557Z,3.00
2023-04-06T01:41:58.560Z,2.42
2023-04-06T01:46:01.654Z,2.75
2023-04-06T01:50:07.163Z,1.90
2023-04-06T01:54:09.863Z,2.60
2023-04-06T01:58:14.117Z,2.67
2023-04-06T02:02:16.855Z,2.25
2023-04-06T02:06:19.591Z,3.08
2023-04-06T02:10:22.257Z,2.13
2023-04-06T02:14:27.983Z,1.75
2023-04-06T02:18:31.590Z,1.73
2023-04-06T02:22:34.275Z,3.17
2023-04-06T02:26:36.952Z,2.88
2023-04-06T02:30:40.947Z,2.63
2023-04-06T02:34:43.569Z,2.03
2023-04-06T02:38:46.223Z,2.15
2023-04-06T02:42:48.884Z,2.45
2023-04-06T02:46:52.923Z,3.90
2023-04-06T02:50:55.575Z,3.10
2023-04-06T02:54:58.218Z,2.50
2023-04-06T02:59:01.003Z,2.28
2023-04-06T03:03:05.843Z,1.92
2023-04-06T03:07:08.598Z,2.75
2023-04-06T03:11:11.604Z,2.50
2023-04-06T03:15:14.302Z,1.67
2023-04-06T03:19:18.375Z,2.17
2023-04-06T03:23:21.809Z,2.03
2023-04-06T03:27:24.572Z,1.90
2023-04-06T03:31:28.331Z,2.08
2023-04-06T03:35:32.431Z,3.25
2023-04-06T03:39:35.250Z,1.70
2023-04-06T03:43:37.913Z,2.08
2023-04-06T03:47:40.719Z,2.78
2023-04-06T03:51:44.764Z,2.40
2023-04-06T03:55:48.043Z,1.80
2023-04-06T03:59:50.892Z,2.40
2023-04-06T04:03:53.801Z,1.70
2023-04-06T04:07:57.855Z,2.10
2023-04-06T04:12:00.811Z,2.35
2023-04-06T04:16:03.562Z,1.92
2023-04-06T04:20:07.929Z,1.67
2023-04-06T04:24:11.954Z,2.05
2023-04-06T04:28:14.646Z,2.70
2023-04-06T04:32:17.571Z,3.55
2023-04-06T04:36:20.269Z,1.58
2023-04-06T04:40:24.356Z,1.80
2023-04-06T04:44:27.010Z,2.75
2023-04-06T04:48:29.685Z,2.97
2023-04-06T04:52:32.316Z,3.85
2023-04-06T04:56:36.743Z,2.17
2023-04-06T05:00:39.495Z,2.25
2023-04-06T05:04:42.163Z,2.65
2023-04-06T05:08:44.920Z,1.88
2023-04-06T05:12:48.965Z,3.05
2023-04-06T05:16:51.723Z,2.25
2023-04-06T05:20:54.473Z,3.22
2023-04-06T05:24:57.100Z,2.85
2023-04-06T05:29:01.149Z,1.98
2023-04-06T05:33:04.240Z,2.08
2023-04-06T05:37:06.889Z,2.47
2023-04-06T05:41:09.625Z,2.65
2023-04-06T05:45:17.678Z,1.90
2023-04-06T05:49:20.712Z,2.05
2023-04-06T05:53:23.575Z,2.78
2023-04-06T05:57:26.362Z,2.28
2023-04-06T06:01:30.708Z,2.55
2023-04-06T06:05:33.554Z,1.95
2023-04-06T06:09:36.398Z,2.45
2023-04-06T06:13:39.299Z,2.15
2023-04-06T06:17:43.699Z,1.90
2023-04-06T06:21:46.445Z,2.67
2023-04-06T06:25:49.162Z,3.28
2023-04-06T06:29:52.739Z,2.40
2023-04-06T06:33:56.925Z,2.67
2023-04-06T06:37:59.581Z,2.55
2023-04-06T06:42:02.782Z,2.25
2023-04-06T06:46:05.685Z,2.28
2023-04-06T06:50:10.608Z,3.17
2023-04-06T06:54:13.385Z,2.05
2023-04-06T06:58:16.668Z,2.15
2023-04-06T07:02:19.517Z,2.08
2023-04-06T07:06:23.884Z,1.73
2023-04-06T07:10:27.180Z,2.08
2023-04-06T07:14:30.095Z,2.22
2023-04-06T07:18:34.840Z,2.53
2023-04-06T07:22:40.486Z,2.15
2023-04-06T07:26:44.691Z,2.40
2023-04-06T07:30:47.520Z,2.25
2023-04-06T07:34:50.466Z,2.75
2023-04-06T07:38:54.656Z,3.03
2023-04-06T07:42:58.231Z,2.92
2023-04-06T07:47:01.338Z,2.55
2023-04-06T07:51:04.652Z,2.70
2023-04-06T07:55:10.676Z,3.17
2023-04-06T07:59:14.843Z,2.40
2023-04-06T08:03:17.899Z,3.03
2023-04-06T08:07:20.877Z,2.38
2023-04-06T08:11:24.970Z,2.10
2023-04-06T08:15:28.292Z,2.53
2023-04-06T08:19:31.195Z,2.92
2023-04-06T08:23:33.886Z,2.55
2023-04-06T08:27:38.051Z,2.83
2023-04-06T08:31:40.812Z,2.35
2023-04-06T08:35:43.768Z,2.75
2023-04-06T08:39:46.487Z,2.85
2023-04-06T08:43:55.138Z,2.60
2023-04-06T08:48:03.689Z,2.83
2023-04-06T08:52:08.944Z,2.08
2023-04-06T08:56:12.665Z,2.13
2023-04-06T09:00:18.716Z,2.15
2023-04-06T09:04:21.881Z,2.58
2023-04-06T09:08:25.657Z,2.13
2023-04-06T09:12:30.483Z,2.55
2023-04-06T09:16:41.803Z,3.05
2023-04-06T09:20:44.717Z,4.30
2023-04-06T09:24:49.076Z,1.77
2023-04-06T09:28:53.033Z,2.22
2023-04-06T09:32:58.455Z,2.40
2023-04-06T09:37:01.393Z,2.35
2023-04-06T09:41:04.624Z,2.67
2023-04-06T09:45:08.422Z,2.35
2023-04-06T09:49:13.708Z,2.15
2023-04-06T09:53:17.249Z,2.50
2023-04-06T09:57:27.011Z,2.90
2023-04-06T10:01:31.852Z,2.53
2023-04-06T10:05:40.044Z,2.00
2023-04-06T10:09:43.987Z,3.30
2023-04-06T10:13:48.782Z,2.70
2023-04-06T10:17:51.833Z,2.50
2023-04-06T10:21:58.664Z,3.25
2023-04-06T10:26:02.752Z,2.28
2023-04-06T10:30:07.555Z,2.65
2023-04-06T10:34:10.681Z,2.88
2023-04-06T10:38:15.654Z,2.95
2023-04-06T10:42:18.339Z,3.22
2023-04-06T10:46:28.011Z,2.72
2023-04-06T10:50:31.822Z,2.60
2023-04-06T10:54:40.229Z,2.95
2023-04-06T10:58:47.546Z,3.70
2023-04-06T11:02:50.286Z,3.78
2023-04-06T11:06:53.324Z,3.47
2023-04-06T11:11:08.247Z,3.90
2023-04-06T11:15:11.949Z,3.28
2023-04-06T11:19:15.510Z,3.63
2023-04-06T11:23:24.794Z,3.00
2023-04-06T11:27:32.374Z,3.03
2023-04-06T11:31:40.388Z,3.17
2023-04-06T11:35:43.543Z,3.72
2023-04-06T11:39:51.587Z,3.50
2023-04-06T11:43:57.629Z,3.42
2023-04-06T11:48:02.426Z,3.28
2023-04-06T11:52:22.308Z,3.70
2023-04-06T11:56:27.113Z,3.60
2023-04-06T12:00:39.996Z,4.40
2023-04-06T12:04:42.775Z,2.92
2023-04-06T12:08:45.763Z,3.00
2023-04-06T12:12:48.453Z,2.20
2023-04-06T12:16:52.492Z,3.42
2023-04-06T12:21:01.041Z,2.85
2023-04-06T12:25:03.758Z,3.15
2023-04-06T12:29:07.996Z,3.47
2023-04-06T12:33:12.354Z,3.15
2023-04-06T12:37:18.068Z,3.03
2023-04-06T12:41:20.974Z,3.53
2023-04-06T12:45:23.651Z,3.58
2023-04-06T12:49:28.090Z,3.13
2023-04-06T12:53:34.482Z,3.47
2023-04-06T12:57:38.465Z,3.28
2023-04-06T13:01:41.478Z,3.60
2023-04-06T13:05:47.299Z,3.53
2023-04-06T13:13:53.246Z,3.38
2023-04-06T13:17:56.796Z,2.90
2023-04-06T13:22:07.050Z,3.33
2023-04-06T13:26:10.478Z,3.45
2023-04-06T13:30:15.762Z,3.30
2023-04-06T13:34:19.411Z,2.95
2023-04-06T13:38:25.076Z,2.97
2023-04-06T13:46:30.498Z,3.25
2023-04-06T13:50:33.165Z,3.53
2023-04-06T13:54:37.464Z,3.20
2023-04-06T13:58:40.170Z,3.17
2023-04-06T14:02:42.989Z,3.17
2023-04-06T14:06:46.996Z,3.45
2023-04-06T14:10:51.014Z,3.25
2023-04-06T14:14:53.858Z,3.78
2023-04-06T14:18:58.810Z,3.13
2023-04-06T14:23:02.399Z,3.15
2023-04-06T14:27:06.445Z,3.28
2023-04-06T14:31:13.149Z,3.38
2023-04-06T14:35:15.951Z,3.45
2023-04-06T14:39:18.624Z,3.00
2023-04-06T14:43:22.643Z,3.13
2023-04-06T14:47:25.688Z,3.75
2023-04-06T14:51:29.199Z,3.13
2023-04-06T14:55:31.883Z,3.20
2023-04-06T14:59:37.889Z,3.10
2023-04-06T15:03:42.792Z,3.28
2023-04-06T15:07:45.574Z,3.05
2023-04-06T15:11:48.289Z,3.53
2023-04-06T15:15:53.179Z,3.45
2023-04-06T15:19:55.911Z,3.20
2023-04-06T15:23:58.663Z,2.90
2023-04-06T15:28:01.813Z,2.80
2023-04-06T15:32:06.467Z,3.00
2023-04-06T15:36:23.607Z,5.65
2023-04-06T15:40:27.298Z,3.38
2023-04-06T15:44:29.975Z,2.92
2023-04-06T15:48:34.828Z,3.28
2023-04-06T15:52:39.273Z,2.90
2023-04-06T15:56:41.933Z,2.67
2023-04-06T16:00:44.679Z,2.90
2023-04-06T16:04:48.814Z,2.72
2023-04-06T16:08:51.591Z,3.15
2023-04-06T16:12:54.229Z,4.15
2023-04-06T16:16:57.575Z,6.45
2023-04-06T16:21:01.766Z,3.17
2023-04-06T16:25:04.779Z,3.67
2023-04-06T16:29:07.994Z,2.88
2023-04-06T16:33:11.014Z,2.90
2023-04-06T16:37:15.028Z,2.80
2023-04-06T16:41:17.660Z,2.63
2023-04-06T16:45:21.233Z,3.15
2023-04-06T16:49:24.381Z,3.20
2023-04-06T16:53:28.605Z,2.90
2023-04-06T16:57:31.279Z,2.83
2023-04-06T17:01:34.003Z,3.05
2023-04-06T17:05:36.711Z,3.72
2023-04-06T17:09:41.762Z,3.10
2023-04-06T17:13:45.578Z,3.13
2023-04-06T17:17:48.438Z,2.92
2023-04-06T17:21:52.004Z,2.83
2023-04-06T17:25:57.854Z,3.03
2023-04-06T17:30:06.328Z,3.55
2023-04-06T17:34:10.315Z,3.15
2023-04-06T17:38:13.008Z,3.53
2023-04-06T17:42:18.210Z,3.40
2023-04-06T17:46:22.796Z,3.15
2023-04-06T17:50:25.858Z,4.63
2023-04-06T17:54:34.729Z,3.28
2023-04-06T17:58:39.153Z,2.90
2023-04-06T18:02:41.938Z,3.55
2023-04-06T18:06:44.695Z,3.45
2023-04-06T18:10:48.659Z,4.35
2023-04-06T18:14:58.621Z,4.53
2023-04-06T18:19:01.641Z,4.28
2023-04-06T18:23:04.307Z,4.13
2023-04-06T18:27:07.347Z,3.97
2023-04-06T18:31:17.161Z,3.10
2023-04-06T18:35:19.842Z,3.67
2023-04-06T18:39:22.505Z,3.42
2023-04-06T18:43:25.428Z,3.10
2023-04-06T18:47:35.338Z,4.05
2023-04-06T18:51:38.331Z,3.17
2023-04-06T18:55:40.986Z,3.55
2023-04-06T18:59:43.696Z,3.75
2023-04-06T19:03:55.427Z,3.80
2023-04-06T19:07:58.552Z,3.55
2023-04-06T19:12:01.275Z,3.67
2023-04-06T19:16:04.122Z,3.85
2023-04-06T19:20:09.648Z,4.70
2023-04-06T19:24:13.279Z,4.75
2023-04-06T19:28:16.040Z,4.60
2023-04-06T19:32:18.807Z,3.83
2023-04-06T19:36:22.952Z,3.60
2023-04-06T19:40:25.786Z,4.57
2023-04-06T19:44:29.196Z,4.90
2023-04-06T19:48:34.350Z,3.00
2023-04-06T19:52:38.535Z,3.83
2023-04-06T19:56:41.264Z,3.65
2023-04-06T20:00:43.973Z,8.20
2023-04-06T20:04:46.711Z,3.55
2023-04-06T20:08:51.820Z,3.63
2023-04-06T20:12:54.600Z,4.05
2023-04-06T20:16:57.813Z,3.67
2023-04-06T20:21:00.882Z,3.97
2023-04-06T20:25:05.478Z,4.78
2023-04-06T20:29:08.188Z,5.57
2023-04-06T20:33:13.438Z,4.95
2023-04-06T20:37:17.613Z,4.55
2023-04-06T20:41:22.034Z,5.05
2023-04-06T20:45:25.165Z,4.50
2023-04-06T20:49:28.160Z,3.67
2023-04-06T20:53:32.733Z,5.85
2023-04-06T20:57:36.732Z,4.40
2023-04-06T21:01:40.240Z,4.35
2023-04-06T21:05:42.938Z,3.88
2023-04-06T21:09:45.565Z,4.65
2023-04-06T21:13:49.537Z,4.05
2023-04-06T21:17:52.239Z,3.58
2023-04-06T21:21:55.129Z,4.60
2023-04-06T21:25:57.933Z,3.60
2023-04-06T21:30:02.125Z,4.28
2023-04-06T21:34:09.524Z,3.63
2023-04-06T21:38:12.324Z,4.53
2023-04-06T21:42:15.018Z,3.97
2023-04-06T21:46:19.200Z,3.80
2023-04-06T21:50:21.820Z,2.80
2023-04-06T21:54:24.475Z,4.38
2023-04-06T21:58:27.127Z,3.60
2023-04-06T22:02:32.150Z,3.58
2023-04-06T22:06:34.953Z,3.53
2023-04-06T22:10:39.634Z,3.30
2023-04-06T22:14:42.424Z,3.53
2023-04-06T22:18:46.740Z,3.72
2023-04-06T22:22:49.451Z,4.57
2023-04-06T22:26:52.059Z,3.67
2023-04-06T22:30:54.667Z,3.00
2023-04-06T22:34:58.623Z,3.08
2023-04-06T22:39:01.421Z,3.25
2023-04-06T22:43:04.011Z,3.75
2023-04-06T22:47:06.747Z,4.03
2023-04-06T22:51:10.791Z,3.47
2023-04-06T22:55:13.437Z,2.95
2023-04-06T22:59:16.028Z,3.08
2023-04-06T23:03:18.759Z,3.80
2023-04-06T23:07:22.801Z,3.15
2023-04-06T23:11:25.485Z,3.20
2023-04-06T23:15:28.271Z,3.47
2023-04-06T23:19:31.307Z,3.97
2023-04-06T23:23:35.502Z,3.17
2023-04-06T23:27:38.145Z,3.38
2023-04-06T23:31:40.935Z,3.35
2023-04-06T23:35:43.709Z,3.80
2023-04-06T23:39:48.395Z,3.42
2023-04-06T23:43:51.818Z,3.13
2023-04-06T23:47:54.576Z,2.97
2023-04-06T23:51:57.210Z,3.25
2023-04-06T23:56:01.477Z,3.22
